sensor_id;sensor_type;location;lat;lon;timestamp;pressure;altitude;pressure_sealevel;temperature;humidity
6132;BME280;3097;42.692;23.278;2023-02-25T00:00:09;94405.75;;;7.77;89.99
6132;BME280;3097;42.692;23.278;2023-02-25T00:02:43;94401.50;;;7.71;91.26
6132;BME280;3097;42.692;23.278;2023-02-25T00:05:09;94397.56;;;7.69;92.17
6132;BME280;3097;42.692;23.278;2023-02-25T00:07:36;94409.81;;;7.85;90.94
6132;BME280;3097;42.692;23.278;2023-02-25T00:10:01;94406.38;;;7.91;89.71
6132;BME280;3097;42.692;23.278;2023-02-25T00:12:27;94389.16;;;7.80;90.14
6132;BME280;3097;42.692;23.278;2023-02-25T00:14:53;94423.66;;;7.66;91.61
6132;BME280;3097;42.692;23.278;2023-02-25T00:17:18;94413.59;;;7.83;90.36
6132;BME280;3097;42.692;23.278;2023-02-25T00:19:44;94399.00;;;7.65;91.62
6132;BME280;3097;42.692;23.278;2023-02-25T00:22:10;94417.97;;;7.64;91.98
6132;BME280;3097;42.692;23.278;2023-02-25T00:24:36;94409.41;;;7.70;90.90
6132;BME280;3097;42.692;23.278;2023-02-25T00:27:01;94405.91;;;7.64;90.72
6132;BME280;3097;42.692;23.278;2023-02-25T00:29:28;94399.97;;;7.82;90.14
6132;BME280;3097;42.692;23.278;2023-02-25T00:31:53;94381.34;;;7.57;89.80
6132;BME280;3097;42.692;23.278;2023-02-25T00:34:19;94388.47;;;7.73;90.16
6132;BME280;3097;42.692;23.278;2023-02-25T00:36:44;94379.41;;;7.70;90.46
6132;BME280;3097;42.692;23.278;2023-02-25T00:39:10;94361.69;;;7.51;90.70
6132;BME280;3097;42.692;23.278;2023-02-25T00:41:35;94369.94;;;7.71;89.86
6132;BME280;3097;42.692;23.278;2023-02-25T00:44:01;94383.19;;;7.68;90.53
6132;BME280;3097;42.692;23.278;2023-02-25T00:46:28;94334.06;;;7.34;91.54
6132;BME280;3097;42.692;23.278;2023-02-25T00:48:54;94376.19;;;7.75;90.43
6132;BME280;3097;42.692;23.278;2023-02-25T00:51:22;94359.09;;;7.69;90.08
6132;BME280;3097;42.692;23.278;2023-02-25T00:53:48;94369.66;;;7.61;90.42
6132;BME280;3097;42.692;23.278;2023-02-25T00:56:15;94371.44;;;7.60;91.03
6132;BME280;3097;42.692;23.278;2023-02-25T00:58:44;94267.19;;;6.99;89.61
6132;BME280;3097;42.692;23.278;2023-02-25T01:03:44;94355.63;;;7.45;90.34
6132;BME280;3097;42.692;23.278;2023-02-25T01:06:10;94343.88;;;7.56;89.60
6132;BME280;3097;42.692;23.278;2023-02-25T01:08:35;94326.41;;;7.46;89.76
6132;BME280;3097;42.692;23.278;2023-02-25T01:11:13;94341.66;;;7.41;90.33
6132;BME280;3097;42.692;23.278;2023-02-25T01:13:39;94335.19;;;7.38;90.53
6132;BME280;3097;42.692;23.278;2023-02-25T01:16:16;94323.81;;;7.34;90.59
6132;BME280;3097;42.692;23.278;2023-02-25T01:18:43;94325.78;;;7.32;91.41
6132;BME280;3097;42.692;23.278;2023-02-25T01:21:20;94344.59;;;7.26;90.87
6132;BME280;3097;42.692;23.278;2023-02-25T01:23:54;94330.91;;;7.32;90.67
6132;BME280;3097;42.692;23.278;2023-02-25T01:26:23;94347.28;;;7.31;90.73
6132;BME280;3097;42.692;23.278;2023-02-25T01:28:49;94336.41;;;7.36;90.36
6132;BME280;3097;42.692;23.278;2023-02-25T01:31:16;94341.59;;;7.29;90.11
6132;BME280;3097;42.692;23.278;2023-02-25T01:33:42;94319.59;;;7.22;91.10
6132;BME280;3097;42.692;23.278;2023-02-25T01:36:08;94332.63;;;7.20;92.48
6132;BME280;3097;42.692;23.278;2023-02-25T01:38:33;94332.47;;;7.33;92.78
6132;BME280;3097;42.692;23.278;2023-02-25T01:41:00;94326.16;;;7.36;92.35
6132;BME280;3097;42.692;23.278;2023-02-25T01:43:26;94342.03;;;7.26;92.25
6132;BME280;3097;42.692;23.278;2023-02-25T01:45:53;94314.75;;;7.32;92.15
6132;BME280;3097;42.692;23.278;2023-02-25T01:48:24;94292.38;;;6.84;94.66
6132;BME280;3097;42.692;23.278;2023-02-25T01:50:55;94331.19;;;7.24;93.59
6132;BME280;3097;42.692;23.278;2023-02-25T01:53:27;94317.88;;;7.34;91.83
6132;BME280;3097;42.692;23.278;2023-02-25T01:55:55;94334.25;;;7.33;91.91
6132;BME280;3097;42.692;23.278;2023-02-25T01:58:21;94329.22;;;7.26;92.72
6132;BME280;3097;42.692;23.278;2023-02-25T02:00:47;94317.25;;;7.02;92.93
6132;BME280;3097;42.692;23.278;2023-02-25T02:03:13;94339.88;;;7.42;91.38
6132;BME280;3097;42.692;23.278;2023-02-25T02:06:09;94335.34;;;7.25;92.00
6132;BME280;3097;42.692;23.278;2023-02-25T02:08:36;94331.28;;;7.36;91.55
6132;BME280;3097;42.692;23.278;2023-02-25T02:11:02;94323.16;;;7.39;91.33
6132;BME280;3097;42.692;23.278;2023-02-25T02:13:29;94313.06;;;7.26;91.66
6132;BME280;3097;42.692;23.278;2023-02-25T02:16:21;94318.22;;;7.37;90.29
6132;BME280;3097;42.692;23.278;2023-02-25T02:18:55;94297.47;;;7.27;89.97
6132;BME280;3097;42.692;23.278;2023-02-25T02:27:00;94301.31;;;7.36;90.19
6132;BME280;3097;42.692;23.278;2023-02-25T02:37:39;94305.34;;;7.26;89.25
6132;BME280;3097;42.692;23.278;2023-02-25T02:40:20;94297.09;;;7.24;89.64
6132;BME280;3097;42.692;23.278;2023-02-25T02:46:23;94290.03;;;7.01;89.97
6132;BME280;3097;42.692;23.278;2023-02-25T02:48:53;94268.69;;;6.89;91.33
6132;BME280;3097;42.692;23.278;2023-02-25T02:51:28;94277.31;;;6.94;91.35
6132;BME280;3097;42.692;23.278;2023-02-25T02:53:58;94265.41;;;7.00;91.20
6132;BME280;3097;42.692;23.278;2023-02-25T02:56:26;94251.69;;;6.94;91.35
6132;BME280;3097;42.692;23.278;2023-02-25T02:59:27;94259.75;;;6.98;91.61
6132;BME280;3097;42.692;23.278;2023-02-25T03:02:01;94254.69;;;6.91;91.07
6132;BME280;3097;42.692;23.278;2023-02-25T03:04:32;94286.00;;;7.12;89.88
6132;BME280;3097;42.692;23.278;2023-02-25T03:07:04;94281.66;;;7.12;89.54
6132;BME280;3097;42.692;23.278;2023-02-25T03:09:39;94276.81;;;7.04;89.91
6132;BME280;3097;42.692;23.278;2023-02-25T03:12:07;94285.97;;;6.93;90.48
6132;BME280;3097;42.692;23.278;2023-02-25T03:14:32;94271.13;;;7.02;91.03
6132;BME280;3097;42.692;23.278;2023-02-25T03:17:04;94264.72;;;6.75;93.27
6132;BME280;3097;42.692;23.278;2023-02-25T03:19:44;94283.06;;;6.90;92.13
6132;BME280;3097;42.692;23.278;2023-02-25T03:22:17;94283.22;;;6.95;90.93
6132;BME280;3097;42.692;23.278;2023-02-25T03:24:56;94225.13;;;6.71;91.52
6132;BME280;3097;42.692;23.278;2023-02-25T03:27:27;94266.56;;;6.68;92.93
6132;BME280;3097;42.692;23.278;2023-02-25T03:30:04;94267.53;;;6.85;92.14
6132;BME280;3097;42.692;23.278;2023-02-25T03:32:31;94272.19;;;6.94;91.08
6132;BME280;3097;42.692;23.278;2023-02-25T03:35:01;94269.22;;;6.97;92.11
6132;BME280;3097;42.692;23.278;2023-02-25T03:37:30;94232.19;;;6.93;90.51
6132;BME280;3097;42.692;23.278;2023-02-25T03:39:58;94272.41;;;7.11;91.10
6132;BME280;3097;42.692;23.278;2023-02-25T03:42:29;94230.25;;;6.71;91.31
6132;BME280;3097;42.692;23.278;2023-02-25T03:44:59;94256.09;;;6.87;91.21
6132;BME280;3097;42.692;23.278;2023-02-25T03:47:27;94264.44;;;7.19;89.79
6132;BME280;3097;42.692;23.278;2023-02-25T03:52:25;94245.56;;;7.14;89.45
6132;BME280;3097;42.692;23.278;2023-02-25T03:54:52;94231.25;;;6.88;89.63
6132;BME280;3097;42.692;23.278;2023-02-25T03:57:20;94242.72;;;7.04;89.99
6132;BME280;3097;42.692;23.278;2023-02-25T03:59:50;94253.88;;;7.09;88.86
6132;BME280;3097;42.692;23.278;2023-02-25T04:02:18;94261.56;;;7.09;89.14
6132;BME280;3097;42.692;23.278;2023-02-25T04:04:44;94241.72;;;7.05;88.46
6132;BME280;3097;42.692;23.278;2023-02-25T04:07:10;94261.28;;;6.81;89.08
6132;BME280;3097;42.692;23.278;2023-02-25T04:09:35;94264.44;;;6.83;89.98
6132;BME280;3097;42.692;23.278;2023-02-25T04:12:00;94262.38;;;6.91;89.19
6132;BME280;3097;42.692;23.278;2023-02-25T04:14:26;94239.66;;;6.58;89.42
6132;BME280;3097;42.692;23.278;2023-02-25T04:16:51;94274.09;;;6.81;90.07
6132;BME280;3097;42.692;23.278;2023-02-25T04:19:17;94278.66;;;6.79;89.68
6132;BME280;3097;42.692;23.278;2023-02-25T04:21:43;94262.00;;;6.88;89.05
6132;BME280;3097;42.692;23.278;2023-02-25T04:24:08;94255.78;;;6.59;89.48
6132;BME280;3097;42.692;23.278;2023-02-25T04:26:34;94255.72;;;6.66;90.71
6132;BME280;3097;42.692;23.278;2023-02-25T04:28:59;94256.38;;;6.79;89.53
6132;BME280;3097;42.692;23.278;2023-02-25T04:31:25;94250.25;;;6.80;88.73
6132;BME280;3097;42.692;23.278;2023-02-25T04:33:50;94242.78;;;6.79;88.21
6132;BME280;3097;42.692;23.278;2023-02-25T04:38:52;94232.38;;;6.37;90.61
6132;BME280;3097;42.692;23.278;2023-02-25T04:41:18;94214.88;;;6.34;90.64
6132;BME280;3097;42.692;23.278;2023-02-25T04:43:44;94185.72;;;6.35;89.27
6132;BME280;3097;42.692;23.278;2023-02-25T04:46:10;94179.69;;;6.30;89.58
6132;BME280;3097;42.692;23.278;2023-02-25T04:48:36;94214.66;;;6.36;91.31
6132;BME280;3097;42.692;23.278;2023-02-25T04:51:04;94221.19;;;6.32;92.48
6132;BME280;3097;42.692;23.278;2023-02-25T04:53:30;94213.19;;;6.46;91.57
6132;BME280;3097;42.692;23.278;2023-02-25T04:55:55;94207.28;;;6.46;91.41
6132;BME280;3097;42.692;23.278;2023-02-25T04:58:21;94206.06;;;6.48;90.70
6132;BME280;3097;42.692;23.278;2023-02-25T05:00:46;94221.63;;;6.47;90.39
6132;BME280;3097;42.692;23.278;2023-02-25T05:03:14;94180.97;;;6.39;90.08
6132;BME280;3097;42.692;23.278;2023-02-25T05:05:40;94207.03;;;6.29;90.27
6132;BME280;3097;42.692;23.278;2023-02-25T05:08:05;94200.66;;;6.38;90.46
6132;BME280;3097;42.692;23.278;2023-02-25T05:10:31;94210.59;;;6.28;90.45
6132;BME280;3097;42.692;23.278;2023-02-25T05:12:57;94200.09;;;6.36;91.65
6132;BME280;3097;42.692;23.278;2023-02-25T05:15:22;94199.81;;;6.44;91.81
6132;BME280;3097;42.692;23.278;2023-02-25T05:17:47;94214.31;;;6.50;90.86
6132;BME280;3097;42.692;23.278;2023-02-25T05:20:13;94205.50;;;6.46;90.45
6132;BME280;3097;42.692;23.278;2023-02-25T05:22:40;94198.81;;;6.45;90.96
6132;BME280;3097;42.692;23.278;2023-02-25T05:25:06;94192.19;;;6.38;92.03
6132;BME280;3097;42.692;23.278;2023-02-25T05:27:33;94198.97;;;6.50;92.35
6132;BME280;3097;42.692;23.278;2023-02-25T05:29:58;94212.63;;;6.63;91.97
6132;BME280;3097;42.692;23.278;2023-02-25T05:32:24;94200.53;;;6.70;91.30
6132;BME280;3097;42.692;23.278;2023-02-25T05:34:49;94216.91;;;6.69;91.62
6132;BME280;3097;42.692;23.278;2023-02-25T05:37:15;94241.34;;;6.65;91.89
6132;BME280;3097;42.692;23.278;2023-02-25T05:39:40;94229.41;;;6.77;91.57
6132;BME280;3097;42.692;23.278;2023-02-25T05:42:06;94227.88;;;6.76;91.53
6132;BME280;3097;42.692;23.278;2023-02-25T05:44:31;94228.16;;;6.68;92.39
6132;BME280;3097;42.692;23.278;2023-02-25T05:46:56;94234.75;;;6.75;92.27
6132;BME280;3097;42.692;23.278;2023-02-25T05:49:22;94257.16;;;6.80;92.24
6132;BME280;3097;42.692;23.278;2023-02-25T05:51:48;94204.56;;;6.77;91.96
6132;BME280;3097;42.692;23.278;2023-02-25T05:54:14;94204.31;;;6.67;91.82
6132;BME280;3097;42.692;23.278;2023-02-25T05:56:39;94256.03;;;6.94;91.41
6132;BME280;3097;42.692;23.278;2023-02-25T05:59:05;94233.59;;;6.71;93.51
6132;BME280;3097;42.692;23.278;2023-02-25T06:01:30;94246.06;;;6.86;93.19
6132;BME280;3097;42.692;23.278;2023-02-25T06:03:56;94239.53;;;6.90;93.02
6132;BME280;3097;42.692;23.278;2023-02-25T06:06:23;94254.81;;;6.96;92.26
6132;BME280;3097;42.692;23.278;2023-02-25T06:08:51;94236.66;;;6.80;93.00
6132;BME280;3097;42.692;23.278;2023-02-25T06:11:23;94256.09;;;7.06;93.02
6132;BME280;3097;42.692;23.278;2023-02-25T06:13:50;94211.75;;;7.05;92.09
6132;BME280;3097;42.692;23.278;2023-02-25T06:16:16;94236.06;;;7.14;92.56
6132;BME280;3097;42.692;23.278;2023-02-25T06:18:42;94217.81;;;7.11;92.71
6132;BME280;3097;42.692;23.278;2023-02-25T06:21:10;94231.03;;;7.26;93.02
6132;BME280;3097;42.692;23.278;2023-02-25T06:23:38;94235.59;;;7.54;92.36
6132;BME280;3097;42.692;23.278;2023-02-25T06:26:05;94249.09;;;7.61;91.91
6132;BME280;3097;42.692;23.278;2023-02-25T06:28:34;94256.28;;;7.70;91.66
6132;BME280;3097;42.692;23.278;2023-02-25T06:31:00;94232.97;;;7.72;91.02
6132;BME280;3097;42.692;23.278;2023-02-25T06:33:29;94251.88;;;7.89;90.72
6132;BME280;3097;42.692;23.278;2023-02-25T06:35:56;94250.41;;;7.82;90.09
6132;BME280;3097;42.692;23.278;2023-02-25T06:38:21;94272.53;;;7.94;90.50
6132;BME280;3097;42.692;23.278;2023-02-25T06:40:48;94233.94;;;8.01;89.51
6132;BME280;3097;42.692;23.278;2023-02-25T06:43:14;94205.56;;;7.84;88.51
6132;BME280;3097;42.692;23.278;2023-02-25T06:45:40;94204.47;;;7.92;88.12
6132;BME280;3097;42.692;23.278;2023-02-25T06:48:05;94246.13;;;8.29;87.33
6132;BME280;3097;42.692;23.278;2023-02-25T06:50:31;94229.16;;;8.28;87.38
6132;BME280;3097;42.692;23.278;2023-02-25T06:52:58;94236.47;;;8.31;87.91
6132;BME280;3097;42.692;23.278;2023-02-25T06:55:23;94228.97;;;8.52;87.42
6132;BME280;3097;42.692;23.278;2023-02-25T06:57:49;94220.16;;;8.72;86.44
6132;BME280;3097;42.692;23.278;2023-02-25T07:00:15;94225.94;;;8.90;85.62
6132;BME280;3097;42.692;23.278;2023-02-25T07:02:40;94216.88;;;9.00;85.93
6132;BME280;3097;42.692;23.278;2023-02-25T07:05:06;94209.31;;;9.21;85.13
6132;BME280;3097;42.692;23.278;2023-02-25T07:07:31;94200.53;;;9.34;83.82
6132;BME280;3097;42.692;23.278;2023-02-25T07:09:56;94175.97;;;9.26;82.60
6132;BME280;3097;42.692;23.278;2023-02-25T07:12:22;94178.47;;;9.21;82.54
6132;BME280;3097;42.692;23.278;2023-02-25T07:14:48;94205.88;;;9.44;82.81
6132;BME280;3097;42.692;23.278;2023-02-25T07:17:13;94187.25;;;9.25;82.21
6132;BME280;3097;42.692;23.278;2023-02-25T07:19:39;94140.63;;;9.05;81.63
6132;BME280;3097;42.692;23.278;2023-02-25T07:22:05;94194.75;;;9.27;82.01
6132;BME280;3097;42.692;23.278;2023-02-25T07:24:30;94180.59;;;9.24;82.47
6132;BME280;3097;42.692;23.278;2023-02-25T07:26:56;94180.97;;;9.33;81.35
6132;BME280;3097;42.692;23.278;2023-02-25T07:29:22;94140.31;;;9.02;81.93
6132;BME280;3097;42.692;23.278;2023-02-25T07:31:47;94112.41;;;9.10;82.74
6132;BME280;3097;42.692;23.278;2023-02-25T07:34:13;94148.78;;;9.30;81.57
6132;BME280;3097;42.692;23.278;2023-02-25T07:36:39;94169.56;;;9.57;80.86
6132;BME280;3097;42.692;23.278;2023-02-25T07:39:08;94148.53;;;9.60;81.88
6132;BME280;3097;42.692;23.278;2023-02-25T07:41:35;94127.03;;;9.83;79.58
6132;BME280;3097;42.692;23.278;2023-02-25T07:44:02;94133.34;;;9.76;79.93
6132;BME280;3097;42.692;23.278;2023-02-25T07:46:28;94146.97;;;9.93;79.69
6132;BME280;3097;42.692;23.278;2023-02-25T07:48:54;94143.59;;;10.09;79.76
6132;BME280;3097;42.692;23.278;2023-02-25T07:51:21;94121.38;;;10.36;79.44
6132;BME280;3097;42.692;23.278;2023-02-25T07:53:48;94124.56;;;10.65;77.08
6132;BME280;3097;42.692;23.278;2023-02-25T07:56:14;94112.25;;;11.21;74.60
6132;BME280;3097;42.692;23.278;2023-02-25T07:58:40;94104.69;;;11.68;72.43
6132;BME280;3097;42.692;23.278;2023-02-25T08:01:28;94097.31;;;12.19;71.34
6132;BME280;3097;42.692;23.278;2023-02-25T08:03:58;94112.31;;;12.17;68.34
6132;BME280;3097;42.692;23.278;2023-02-25T08:06:23;94093.81;;;11.93;68.64
6132;BME280;3097;42.692;23.278;2023-02-25T08:08:49;94002.56;;;11.13;69.08
6132;BME280;3097;42.692;23.278;2023-02-25T08:11:17;94106.84;;;11.76;69.15
6132;BME280;3097;42.692;23.278;2023-02-25T08:13:43;94106.38;;;11.79;69.70
6132;BME280;3097;42.692;23.278;2023-02-25T08:16:12;94106.59;;;11.51;69.58
6132;BME280;3097;42.692;23.278;2023-02-25T08:18:38;94109.72;;;11.53;69.20
6132;BME280;3097;42.692;23.278;2023-02-25T08:21:06;94095.06;;;11.27;70.39
6132;BME280;3097;42.692;23.278;2023-02-25T08:23:31;94060.16;;;10.92;70.86
6132;BME280;3097;42.692;23.278;2023-02-25T08:25:58;94060.84;;;11.09;70.78
6132;BME280;3097;42.692;23.278;2023-02-25T08:28:25;94099.50;;;11.36;70.09
6132;BME280;3097;42.692;23.278;2023-02-25T08:30:51;94096.25;;;11.46;69.93
6132;BME280;3097;42.692;23.278;2023-02-25T08:33:17;94091.72;;;11.31;70.19
6132;BME280;3097;42.692;23.278;2023-02-25T08:35:43;94084.47;;;11.28;71.28
6132;BME280;3097;42.692;23.278;2023-02-25T08:38:08;94084.44;;;11.50;70.05
6132;BME280;3097;42.692;23.278;2023-02-25T08:40:34;94076.38;;;11.46;69.64
6132;BME280;3097;42.692;23.278;2023-02-25T08:43:00;94056.91;;;11.02;71.37
6132;BME280;3097;42.692;23.278;2023-02-25T08:45:26;94066.69;;;11.27;70.97
6132;BME280;3097;42.692;23.278;2023-02-25T08:47:53;94035.16;;;11.19;70.19
6132;BME280;3097;42.692;23.278;2023-02-25T08:50:18;94053.25;;;11.24;70.63
6132;BME280;3097;42.692;23.278;2023-02-25T08:52:44;94051.41;;;11.20;71.12
6132;BME280;3097;42.692;23.278;2023-02-25T08:55:10;94061.44;;;10.90;72.13
6132;BME280;3097;42.692;23.278;2023-02-25T08:57:39;94060.69;;;10.94;71.64
6132;BME280;3097;42.692;23.278;2023-02-25T09:00:07;94068.09;;;11.12;71.33
6132;BME280;3097;42.692;23.278;2023-02-25T09:02:34;94071.97;;;11.15;71.73
6132;BME280;3097;42.692;23.278;2023-02-25T09:04:59;94082.44;;;11.30;71.49
6132;BME280;3097;42.692;23.278;2023-02-25T09:07:25;94050.88;;;11.18;71.63
6132;BME280;3097;42.692;23.278;2023-02-25T09:09:51;94047.28;;;11.24;71.38
6132;BME280;3097;42.692;23.278;2023-02-25T09:12:17;94025.19;;;11.06;72.16
6132;BME280;3097;42.692;23.278;2023-02-25T09:14:42;94042.81;;;11.14;72.20
6132;BME280;3097;42.692;23.278;2023-02-25T09:17:08;94039.97;;;11.11;72.74
6132;BME280;3097;42.692;23.278;2023-02-25T09:19:33;94037.63;;;11.09;72.79
6132;BME280;3097;42.692;23.278;2023-02-25T09:22:02;93996.41;;;10.82;73.77
6132;BME280;3097;42.692;23.278;2023-02-25T09:24:27;94022.16;;;11.09;72.61
6132;BME280;3097;42.692;23.278;2023-02-25T09:26:54;94019.22;;;11.01;72.97
6132;BME280;3097;42.692;23.278;2023-02-25T09:29:19;94045.16;;;11.16;74.15
6132;BME280;3097;42.692;23.278;2023-02-25T09:31:45;94036.75;;;11.25;74.17
6132;BME280;3097;42.692;23.278;2023-02-25T09:34:10;94046.34;;;11.35;73.39
6132;BME280;3097;42.692;23.278;2023-02-25T09:36:40;94026.31;;;11.42;72.85
6132;BME280;3097;42.692;23.278;2023-02-25T09:39:05;93995.56;;;11.41;71.46
6132;BME280;3097;42.692;23.278;2023-02-25T09:44:10;94014.53;;;11.56;70.36
6132;BME280;3097;42.692;23.278;2023-02-25T09:46:41;93989.13;;;11.43;70.35
6132;BME280;3097;42.692;23.278;2023-02-25T09:49:16;94009.69;;;11.65;69.86
6132;BME280;3097;42.692;23.278;2023-02-25T09:51:50;94009.34;;;11.93;69.48
6132;BME280;3097;42.692;23.278;2023-02-25T09:54:31;94002.78;;;12.23;72.20
6132;BME280;3097;42.692;23.278;2023-02-25T09:57:00;93996.59;;;12.34;72.50
6132;BME280;3097;42.692;23.278;2023-02-25T09:59:28;93995.34;;;12.36;73.50
6132;BME280;3097;42.692;23.278;2023-02-25T10:05:00;93985.81;;;12.57;66.67
6132;BME280;3097;42.692;23.278;2023-02-25T10:07:33;93980.94;;;12.61;65.48
6132;BME280;3097;42.692;23.278;2023-02-25T10:10:22;93994.13;;;12.59;66.07
6132;BME280;3097;42.692;23.278;2023-02-25T10:12:59;93981.69;;;12.46;67.26
6132;BME280;3097;42.692;23.278;2023-02-25T10:15:45;93959.44;;;12.45;65.25
6132;BME280;3097;42.692;23.278;2023-02-25T10:26:23;93928.88;;;12.27;65.45
6132;BME280;3097;42.692;23.278;2023-02-25T10:28:54;93941.34;;;12.45;64.88
6132;BME280;3097;42.692;23.278;2023-02-25T10:31:22;93929.97;;;12.51;64.00
6132;BME280;3097;42.692;23.278;2023-02-25T10:33:49;93916.25;;;12.35;63.87
6132;BME280;3097;42.692;23.278;2023-02-25T10:38:46;93924.81;;;12.56;62.70
6132;BME280;3097;42.692;23.278;2023-02-25T10:41:12;93907.28;;;12.84;61.30
6132;BME280;3097;42.692;23.278;2023-02-25T10:43:38;93906.50;;;12.83;61.28
6132;BME280;3097;42.692;23.278;2023-02-25T10:46:12;93896.66;;;12.95;60.67
6132;BME280;3097;42.692;23.278;2023-02-25T10:48:41;93902.13;;;13.14;53.58
6132;BME280;3097;42.692;23.278;2023-02-25T10:51:10;93898.97;;;13.52;50.43
6132;BME280;3097;42.692;23.278;2023-02-25T10:56:23;93884.19;;;14.17;48.55
6132;BME280;3097;42.692;23.278;2023-02-25T11:01:49;93867.75;;;14.42;45.98
6132;BME280;3097;42.692;23.278;2023-02-25T11:04:18;93887.84;;;14.60;46.09
6132;BME280;3097;42.692;23.278;2023-02-25T11:06:45;93866.41;;;14.50;46.58
6132;BME280;3097;42.692;23.278;2023-02-25T11:12:17;93882.19;;;14.58;46.58
6132;BME280;3097;42.692;23.278;2023-02-25T11:14:46;93863.19;;;14.63;47.17
6132;BME280;3097;42.692;23.278;2023-02-25T11:17:17;93851.16;;;14.77;45.29
6132;BME280;3097;42.692;23.278;2023-02-25T11:20:00;93859.34;;;14.89;46.72
6132;BME280;3097;42.692;23.278;2023-02-25T11:22:37;93835.91;;;14.70;46.44
6132;BME280;3097;42.692;23.278;2023-02-25T11:25:16;93832.41;;;14.85;47.79
6132;BME280;3097;42.692;23.278;2023-02-25T11:27:46;93806.34;;;14.71;45.90
6132;BME280;3097;42.692;23.278;2023-02-25T11:30:30;93808.59;;;14.78;45.93
6132;BME280;3097;42.692;23.278;2023-02-25T11:32:58;93817.22;;;15.02;46.01
6132;BME280;3097;42.692;23.278;2023-02-25T11:35:34;93792.34;;;14.96;47.86
6132;BME280;3097;42.692;23.278;2023-02-25T11:38:23;93820.91;;;15.20;53.34
6132;BME280;3097;42.692;23.278;2023-02-25T11:40:49;93819.50;;;15.33;47.71
6132;BME280;3097;42.692;23.278;2023-02-25T11:43:20;93818.22;;;15.30;46.01
6132;BME280;3097;42.692;23.278;2023-02-25T11:46:02;93828.56;;;15.35;45.02
6132;BME280;3097;42.692;23.278;2023-02-25T11:48:30;93821.34;;;15.32;45.21
6132;BME280;3097;42.692;23.278;2023-02-25T11:51:21;93816.47;;;15.26;45.31
6132;BME280;3097;42.692;23.278;2023-02-25T11:57:26;93822.72;;;15.48;44.53
6132;BME280;3097;42.692;23.278;2023-02-25T12:10:59;93849.47;;;15.73;44.81
6132;BME280;3097;42.692;23.278;2023-02-25T12:13:44;93849.28;;;15.64;45.21
6132;BME280;3097;42.692;23.278;2023-02-25T12:16:41;93858.28;;;15.77;48.02
6132;BME280;3097;42.692;23.278;2023-02-25T12:53:01;93760.06;;;15.74;47.76
6132;BME280;3097;42.692;23.278;2023-02-25T13:03:37;93728.97;;;15.87;46.33
6132;BME280;3097;42.692;23.278;2023-02-25T13:06:24;93748.84;;;15.97;45.12
6132;BME280;3097;42.692;23.278;2023-02-25T13:22:35;93721.09;;;16.11;45.42
6132;BME280;3097;42.692;23.278;2023-02-25T13:28:02;93717.72;;;16.11;45.18
6132;BME280;3097;42.692;23.278;2023-02-25T13:33:13;93726.28;;;16.11;44.93
6132;BME280;3097;42.692;23.278;2023-02-25T13:41:10;93710.00;;;16.06;44.24
6132;BME280;3097;42.692;23.278;2023-02-25T14:20:04;93704.13;;;15.63;46.17
6132;BME280;3097;42.692;23.278;2023-02-25T14:22:50;93666.66;;;15.45;46.24
6132;BME280;3097;42.692;23.278;2023-02-25T14:33:48;93684.38;;;15.80;46.31
6132;BME280;3097;42.692;23.278;2023-02-25T14:41:51;93696.94;;;15.73;46.29
6132;BME280;3097;42.692;23.278;2023-02-25T14:44:43;93695.63;;;15.76;44.59
6132;BME280;3097;42.692;23.278;2023-02-25T14:47:15;93676.88;;;15.60;45.86
6132;BME280;3097;42.692;23.278;2023-02-25T15:00:45;93738.75;;;15.77;45.79
6132;BME280;3097;42.692;23.278;2023-02-25T15:03:41;93731.72;;;15.77;45.81
6132;BME280;3097;42.692;23.278;2023-02-25T15:11:59;93741.88;;;15.74;46.16
6132;BME280;3097;42.692;23.278;2023-02-25T15:23:09;93751.44;;;15.60;46.95
6132;BME280;3097;42.692;23.278;2023-02-25T15:26:19;93735.06;;;15.59;47.14
6132;BME280;3097;42.692;23.278;2023-02-25T15:28:47;93712.09;;;15.47;47.22
6132;BME280;3097;42.692;23.278;2023-02-25T15:31:32;93753.06;;;15.56;47.51
6132;BME280;3097;42.692;23.278;2023-02-25T15:36:46;93728.00;;;15.41;48.01
6132;BME280;3097;42.692;23.278;2023-02-25T15:42:08;93746.50;;;15.58;47.33
6132;BME280;3097;42.692;23.278;2023-02-25T15:44:45;93732.28;;;15.56;47.60
6132;BME280;3097;42.692;23.278;2023-02-25T15:47:38;93752.78;;;15.52;47.76
6132;BME280;3097;42.692;23.278;2023-02-25T15:50:06;93727.63;;;15.29;47.70
6132;BME280;3097;42.692;23.278;2023-02-25T15:52:52;93771.03;;;15.47;47.61
6132;BME280;3097;42.692;23.278;2023-02-25T15:55:33;93761.72;;;15.46;47.80
6132;BME280;3097;42.692;23.278;2023-02-25T15:57:59;93759.88;;;15.46;47.88
6132;BME280;3097;42.692;23.278;2023-02-25T16:00:59;93758.88;;;15.42;47.96
6132;BME280;3097;42.692;23.278;2023-02-25T16:05:52;93754.41;;;15.48;47.14
6132;BME280;3097;42.692;23.278;2023-02-25T16:08:23;93748.06;;;15.35;47.67
6132;BME280;3097;42.692;23.278;2023-02-25T16:10:53;93680.22;;;14.99;47.85
6132;BME280;3097;42.692;23.278;2023-02-25T16:13:29;93714.22;;;15.22;47.51
6132;BME280;3097;42.692;23.278;2023-02-25T16:15:56;93746.19;;;15.41;47.91
6132;BME280;3097;42.692;23.278;2023-02-25T16:18:37;93743.63;;;15.36;47.87
6132;BME280;3097;42.692;23.278;2023-02-25T16:21:38;93754.81;;;15.36;47.97
6132;BME280;3097;42.692;23.278;2023-02-25T16:24:07;93716.81;;;15.22;47.06
6132;BME280;3097;42.692;23.278;2023-02-25T16:32:24;93742.53;;;15.42;48.10
6132;BME280;3097;42.692;23.278;2023-02-25T16:35:08;93750.94;;;15.34;47.82
6132;BME280;3097;42.692;23.278;2023-02-25T16:40:28;93731.41;;;15.18;47.89
6132;BME280;3097;42.692;23.278;2023-02-25T16:42:56;93768.50;;;15.42;47.98
6132;BME280;3097;42.692;23.278;2023-02-25T16:45:36;93738.00;;;15.29;48.16
6132;BME280;3097;42.692;23.278;2023-02-25T16:48:14;93760.69;;;15.42;48.33
6132;BME280;3097;42.692;23.278;2023-02-25T16:50:44;93738.00;;;15.29;47.61
6132;BME280;3097;42.692;23.278;2023-02-25T16:53:20;93764.31;;;15.46;47.59
6132;BME280;3097;42.692;23.278;2023-02-25T16:55:47;93758.72;;;15.34;47.97
6132;BME280;3097;42.692;23.278;2023-02-25T16:58:23;93758.94;;;15.14;48.07
6132;BME280;3097;42.692;23.278;2023-02-25T17:01:01;93784.63;;;15.39;48.43
6132;BME280;3097;42.692;23.278;2023-02-25T17:03:44;93786.84;;;15.27;48.58
6132;BME280;3097;42.692;23.278;2023-02-25T17:06:17;93784.47;;;15.30;48.71
6132;BME280;3097;42.692;23.278;2023-02-25T17:08:45;93793.03;;;15.31;48.83
6132;BME280;3097;42.692;23.278;2023-02-25T17:11:16;93774.09;;;15.06;48.77
6132;BME280;3097;42.692;23.278;2023-02-25T17:13:43;93796.94;;;15.28;49.11